createdAt,value
2022-12-03T00:00:47.256Z,32.60
2022-12-03T00:03:15.384Z,31.02
2022-12-03T00:05:48.734Z,31.90
2022-12-03T00:08:16.023Z,31.35
2022-12-03T00:10:42.735Z,32.15
2022-12-03T00:13:09.479Z,30.48
2022-12-03T00:15:36.111Z,32.10
2022-12-03T00:18:02.748Z,29.40
2022-12-03T00:20:30.793Z,32.13
2022-12-03T00:22:57.403Z,30.88
2022-12-03T00:25:24.014Z,31.52
2022-12-03T00:27:50.650Z,32.00
2022-12-03T00:30:17.527Z,31.83
2022-12-03T00:32:44.238Z,30.83
2022-12-03T00:35:10.805Z,30.48
2022-12-03T00:37:38.835Z,31.00
2022-12-03T00:40:06.864Z,28.90
2022-12-03T00:42:33.598Z,32.28
2022-12-03T00:45:00.274Z,30.30
2022-12-03T00:47:26.919Z,29.30
2022-12-03T00:49:53.526Z,31.20
2022-12-03T00:52:20.198Z,28.55
2022-12-03T00:54:48.177Z,30.27
2022-12-03T00:57:14.806Z,29.88
2022-12-03T00:59:41.434Z,31.20
2022-12-03T01:02:08.622Z,31.52
2022-12-03T01:04:35.387Z,31.10
2022-12-03T01:07:02.038Z,29.88
2022-12-03T01:09:28.685Z,29.67
2022-12-03T01:11:56.690Z,30.35
2022-12-03T01:14:23.473Z,32.03
2022-12-03T01:16:50.170Z,30.25
2022-12-03T01:19:17.716Z,32.17
2022-12-03T01:21:46.111Z,30.45
2022-12-03T01:24:13.051Z,32.42
2022-12-03T01:26:39.805Z,31.08
2022-12-03T01:29:08.077Z,32.28
2022-12-03T01:31:34.727Z,32.22
2022-12-03T01:34:01.399Z,31.65
2022-12-03T01:36:27.969Z,30.70
2022-12-03T01:38:54.572Z,32.53
2022-12-03T01:41:23.718Z,33.22
2022-12-03T01:43:52.353Z,32.15
2022-12-03T01:46:23.609Z,31.38
2022-12-03T01:48:53.622Z,31.48
2022-12-03T01:51:20.240Z,31.85
2022-12-03T01:53:48.701Z,29.75
2022-12-03T01:56:17.167Z,31.85
2022-12-03T01:58:45.604Z,31.20
2022-12-03T02:01:15.572Z,32.17
2022-12-03T02:03:44.382Z,31.15
2022-12-03T02:06:15.971Z,32.67
2022-12-03T02:08:42.913Z,33.97
2022-12-03T02:11:17.885Z,31.73
2022-12-03T02:13:44.818Z,33.10
2022-12-03T02:16:11.556Z,33.53
2022-12-03T02:18:38.219Z,32.55
2022-12-03T02:21:15.858Z,32.17
2022-12-03T02:23:50.982Z,32.58
2022-12-03T02:26:19.220Z,32.13
2022-12-03T02:28:46.034Z,31.73
2022-12-03T02:31:12.916Z,31.80
2022-12-03T02:33:39.746Z,31.67
2022-12-03T02:36:06.821Z,30.10
2022-12-03T02:38:35.658Z,33.60
2022-12-03T02:41:06.413Z,32.67
2022-12-03T02:43:34.464Z,31.35
2022-12-03T02:46:03.627Z,31.73
2022-12-03T02:48:34.638Z,31.95
2022-12-03T02:51:04.394Z,31.90
2022-12-03T02:53:34.875Z,33.60
2022-12-03T02:56:03.384Z,32.47
2022-12-03T02:58:32.338Z,31.08
2022-12-03T03:01:01.873Z,31.48
2022-12-03T03:03:31.025Z,30.95
2022-12-03T03:06:01.102Z,31.50
2022-12-03T03:08:29.123Z,31.98
2022-12-03T03:10:56.521Z,31.58
2022-12-03T03:13:23.492Z,31.58
2022-12-03T03:15:50.240Z,30.90
2022-12-03T03:18:18.943Z,31.05
2022-12-03T03:20:45.929Z,32.88
2022-12-03T03:23:18.500Z,31.75
2022-12-03T03:25:48.257Z,29.67
2022-12-03T03:28:15.641Z,31.17
2022-12-03T03:30:43.930Z,30.35
2022-12-03T03:33:11.140Z,31.13
2022-12-03T03:35:39.757Z,31.58
2022-12-03T03:38:07.964Z,32.30
2022-12-03T03:40:34.997Z,32.35
2022-12-03T03:43:01.803Z,33.05
2022-12-03T03:45:29.547Z,30.77
2022-12-03T03:47:57.978Z,30.75
2022-12-03T03:50:25.663Z,30.65
2022-12-03T03:52:54.859Z,32.92
2022-12-03T03:55:21.596Z,30.83
2022-12-03T03:57:48.681Z,32.55
2022-12-03T04:00:16.408Z,32.10
2022-12-03T04:02:43.557Z,34.55
2022-12-03T04:05:16.751Z,32.83
2022-12-03T04:07:43.485Z,32.40
2022-12-03T04:10:12.825Z,30.92
2022-12-03T04:12:39.415Z,32.45
2022-12-03T04:15:07.508Z,32.70
2022-12-03T04:17:34.104Z,33.83
2022-12-03T04:20:00.680Z,32.08
2022-12-03T04:22:27.385Z,33.53
2022-12-03T04:24:54.406Z,34.17
2022-12-03T04:27:22.619Z,33.05
2022-12-03T04:29:49.319Z,34.17
2022-12-03T04:32:16.196Z,32.15
2022-12-03T04:34:42.916Z,34.03
2022-12-03T04:37:09.709Z,33.08
2022-12-03T04:39:36.519Z,32.80
2022-12-03T04:42:04.013Z,34.72
2022-12-03T04:44:32.448Z,32.25
2022-12-03T04:46:59.105Z,31.63
2022-12-03T04:49:25.878Z,30.98
2022-12-03T04:51:52.539Z,34.63
2022-12-03T04:54:19.238Z,33.28
2022-12-03T04:56:46.306Z,33.88
2022-12-03T04:59:16.216Z,34.55
2022-12-03T05:01:44.994Z,32.95
2022-12-03T05:04:12.139Z,32.22
2022-12-03T05:06:38.792Z,33.90
2022-12-03T05:09:05.597Z,32.92
2022-12-03T05:11:32.387Z,33.00
2022-12-03T05:13:59.020Z,33.10
2022-12-03T05:16:25.676Z,30.83
2022-12-03T05:18:53.726Z,33.97
2022-12-03T05:21:20.394Z,31.50
2022-12-03T05:23:47.063Z,31.92
2022-12-03T05:26:13.682Z,33.17
2022-12-03T05:28:40.366Z,34.47
2022-12-03T05:31:07.205Z,31.10
2022-12-03T05:33:33.938Z,31.80
2022-12-03T05:36:01.930Z,33.45
2022-12-03T05:38:28.574Z,33.17
2022-12-03T05:40:55.901Z,33.17
2022-12-03T05:43:22.529Z,33.35
2022-12-03T05:45:49.192Z,33.55
2022-12-03T05:48:16.830Z,33.65
2022-12-03T05:50:45.356Z,32.88
2022-12-03T05:53:14.520Z,31.70
2022-12-03T05:55:41.422Z,34.13
2022-12-03T05:58:08.182Z,32.58
2022-12-03T06:00:42.093Z,31.63
2022-12-03T06:03:10.350Z,34.08
2022-12-03T06:05:37.237Z,35.58
2022-12-03T06:08:04.100Z,34.83
2022-12-03T06:10:32.247Z,36.17
2022-12-03T06:12:58.869Z,36.97
2022-12-03T06:15:25.450Z,34.65
2022-12-03T06:17:52.058Z,35.28
2022-12-03T06:20:20.635Z,36.45
2022-12-03T06:22:47.824Z,36.58
2022-12-03T06:25:15.134Z,35.63
2022-12-03T06:27:43.162Z,36.08
2022-12-03T06:30:12.007Z,36.72
2022-12-03T06:32:38.589Z,35.13
2022-12-03T06:35:05.869Z,36.63
2022-12-03T06:37:32.534Z,35.67
2022-12-03T06:39:59.160Z,36.63
2022-12-03T06:42:25.750Z,35.20
2022-12-03T06:44:54.003Z,36.40
2022-12-03T06:47:20.824Z,36.63
2022-12-03T06:49:47.417Z,37.30
2022-12-03T06:52:14.019Z,35.30
2022-12-03T06:54:40.621Z,36.53
2022-12-03T06:57:07.333Z,34.95
2022-12-03T06:59:34.033Z,36.42
2022-12-03T07:02:02.145Z,34.15
2022-12-03T07:04:28.893Z,35.50
2022-12-03T07:06:55.546Z,34.75
2022-12-03T07:09:22.085Z,36.08
2022-12-03T07:11:48.733Z,33.72
2022-12-03T07:14:15.331Z,33.67
2022-12-03T07:16:41.983Z,35.13
2022-12-03T07:19:10.599Z,35.38
2022-12-03T07:21:37.584Z,35.17
2022-12-03T07:24:04.488Z,34.95
2022-12-03T07:26:31.229Z,35.53
2022-12-03T07:28:58.245Z,34.42
2022-12-03T07:31:24.905Z,33.03
2022-12-03T07:33:51.626Z,33.45
2022-12-03T07:36:19.831Z,34.03
2022-12-03T07:38:46.623Z,34.17
2022-12-03T07:41:13.266Z,34.45
2022-12-03T07:43:39.860Z,35.13
2022-12-03T07:46:06.458Z,34.65
2022-12-03T07:48:33.041Z,34.03
2022-12-03T07:50:59.799Z,34.60
2022-12-03T07:53:27.737Z,36.72
2022-12-03T07:55:54.272Z,34.90
2022-12-03T07:58:20.845Z,35.63
2022-12-03T08:00:47.689Z,35.85
2022-12-03T08:03:14.445Z,36.25
2022-12-03T08:05:41.336Z,34.00
2022-12-03T08:08:08.037Z,33.63
2022-12-03T08:10:36.092Z,34.08
2022-12-03T08:13:05.017Z,37.15
2022-12-03T08:15:38.525Z,34.67
2022-12-03T08:18:13.382Z,34.33
2022-12-03T08:20:41.318Z,36.42
2022-12-03T08:23:13.323Z,33.88
2022-12-03T08:25:41.690Z,34.72
2022-12-03T08:28:13.460Z,35.47
2022-12-03T08:30:40.900Z,35.63
2022-12-03T08:33:17.084Z,33.92
2022-12-03T08:35:48.388Z,31.83
2022-12-03T08:38:15.579Z,33.85
2022-12-03T08:40:46.778Z,34.03
2022-12-03T08:43:18.546Z,33.92
2022-12-03T08:45:45.597Z,33.25
2022-12-03T08:48:34.943Z,33.08
2022-12-03T08:51:09.087Z,35.10
2022-12-03T08:53:38.065Z,34.60
2022-12-03T08:56:20.946Z,35.65
2022-12-03T08:58:49.323Z,33.55
2022-12-03T09:01:38.780Z,34.47
2022-12-03T09:04:19.716Z,34.38
2022-12-03T09:06:46.361Z,35.20
2022-12-03T09:09:12.998Z,34.58
2022-12-03T09:11:41.166Z,35.60
2022-12-03T09:14:07.780Z,35.35
2022-12-03T09:16:34.695Z,35.42
2022-12-03T09:19:01.461Z,36.88
2022-12-03T09:21:28.150Z,35.22
2022-12-03T09:23:54.745Z,34.97
2022-12-03T09:26:21.380Z,33.47
2022-12-03T09:28:49.355Z,36.65
2022-12-03T09:31:16.680Z,33.88
2022-12-03T09:33:43.690Z,35.22
2022-12-03T09:36:10.287Z,34.72
2022-12-03T09:38:37.038Z,34.15
2022-12-03T09:41:03.743Z,32.75
2022-12-03T09:44:02.666Z,38.10
2022-12-03T09:46:22.845Z,35.08
2022-12-03T09:48:50.133Z,34.80
2022-12-03T09:51:17.971Z,36.03
2022-12-03T09:53:45.132Z,35.75
2022-12-03T09:56:18.251Z,35.67
2022-12-03T09:58:44.973Z,33.00
2022-12-03T10:01:14.854Z,34.72
2022-12-03T10:03:46.500Z,34.25
2022-12-03T10:06:17.580Z,37.40
2022-12-03T10:08:46.516Z,35.10
2022-12-03T10:11:13.168Z,34.15
2022-12-03T10:13:40.367Z,33.13
2022-12-03T10:16:10.479Z,36.35
2022-12-03T10:18:41.844Z,34.33
2022-12-03T10:21:18.667Z,34.15
2022-12-03T10:23:48.254Z,34.47
2022-12-03T10:26:16.941Z,33.70
2022-12-03T10:28:45.365Z,33.30
2022-12-03T10:31:15.194Z,32.92
2022-12-03T10:33:43.746Z,32.78
2022-12-03T10:36:24.587Z,35.30
2022-12-03T10:39:09.792Z,33.00
2022-12-03T10:41:37.133Z,32.53
2022-12-03T10:44:17.485Z,33.08
2022-12-03T10:46:44.782Z,31.48
2022-12-03T10:49:16.145Z,33.17
2022-12-03T10:51:44.477Z,31.33
2022-12-03T10:54:21.025Z,35.15
2022-12-03T10:56:49.578Z,33.20
2022-12-03T10:59:18.721Z,33.20
2022-12-03T11:01:45.924Z,34.50
2022-12-03T11:04:20.743Z,32.65
2022-12-03T11:06:49.648Z,32.63
2022-12-03T11:09:20.361Z,31.98
2022-12-03T11:11:48.255Z,30.95
2022-12-03T11:14:53.557Z,31.20
2022-12-03T11:17:43.724Z,32.45
2022-12-03T11:20:32.614Z,32.65
2022-12-03T11:23:00.666Z,33.92
2022-12-03T11:25:49.818Z,33.53
2022-12-03T11:28:38.413Z,32.35
2022-12-03T11:31:08.446Z,32.30
2022-12-03T11:33:37.163Z,31.83
2022-12-03T11:36:15.080Z,31.48
2022-12-03T11:38:54.692Z,31.80
2022-12-03T11:41:25.012Z,31.30
2022-12-03T11:44:00.098Z,30.67
2022-12-03T11:46:30.127Z,30.98
2022-12-03T11:48:59.791Z,32.47
2022-12-03T11:51:29.202Z,32.95
2022-12-03T11:53:59.776Z,31.83
2022-12-03T11:56:28.479Z,31.55
2022-12-03T11:58:59.936Z,33.72
2022-12-03T12:01:38.233Z,32.55
2022-12-03T12:04:06.916Z,32.88
2022-12-03T12:06:42.258Z,31.20
2022-12-03T12:09:10.988Z,31.25
2022-12-03T12:11:39.298Z,31.88
2022-12-03T12:14:06.724Z,32.90
2022-12-03T12:16:41.657Z,32.95
2022-12-03T12:19:28.148Z,33.75
2022-12-03T12:21:55.251Z,30.52
2022-12-03T12:24:30.900Z,32.78
2022-12-03T12:26:58.903Z,33.00
2022-12-03T12:29:25.573Z,31.80
2022-12-03T12:31:57.462Z,30.48
2022-12-03T12:34:25.216Z,32.30
2022-12-03T12:36:52.116Z,32.92
2022-12-03T12:39:18.657Z,33.65
2022-12-03T12:41:50.157Z,31.75
2022-12-03T12:44:16.781Z,32.70
2022-12-03T12:46:48.311Z,31.70
2022-12-03T12:49:15.799Z,33.63
2022-12-03T12:51:44.682Z,30.88
2022-12-03T12:54:13.577Z,31.45
2022-12-03T12:56:42.739Z,30.42
2022-12-03T12:59:13.072Z,32.55
2022-12-03T13:01:41.402Z,30.63
2022-12-03T13:04:10.981Z,31.25
2022-12-03T13:06:37.791Z,35.75
2022-12-03T13:09:08.975Z,30.60
2022-12-03T13:11:37.514Z,33.53
2022-12-03T13:14:13.296Z,30.65
2022-12-03T13:16:39.977Z,30.45
2022-12-03T13:19:19.579Z,31.25
2022-12-03T13:21:46.401Z,32.40
2022-12-03T13:24:32.059Z,30.88
2022-12-03T13:27:00.129Z,31.00
2022-12-03T13:29:28.380Z,32.05
2022-12-03T13:31:57.202Z,32.00
2022-12-03T13:34:26.422Z,29.58
2022-12-03T13:36:58.153Z,32.75
2022-12-03T13:39:30.864Z,33.60
2022-12-03T13:42:00.783Z,33.53
2022-12-03T13:44:30.434Z,35.63
2022-12-03T13:46:57.121Z,35.05
2022-12-03T13:49:24.178Z,34.35
2022-12-03T13:51:50.994Z,32.97
2022-12-03T13:54:21.601Z,30.50
2022-12-03T13:56:49.169Z,32.65
2022-12-03T13:59:18.381Z,31.75
2022-12-03T14:01:48.511Z,31.45
2022-12-03T14:04:15.190Z,31.63
2022-12-03T14:06:41.919Z,32.85
2022-12-03T14:09:08.550Z,31.58
2022-12-03T14:11:35.231Z,31.42
2022-12-03T14:14:02.133Z,32.05
2022-12-03T14:16:28.755Z,31.80
2022-12-03T14:18:56.867Z,29.30
2022-12-03T14:21:23.449Z,32.15
2022-12-03T14:23:50.046Z,30.33
2022-12-03T14:26:16.635Z,31.67
2022-12-03T14:28:43.296Z,28.98
2022-12-03T14:31:09.882Z,31.30
2022-12-03T14:33:36.513Z,31.88
2022-12-03T14:36:05.277Z,31.70
2022-12-03T14:38:31.914Z,33.20
2022-12-03T14:40:58.481Z,29.35
2022-12-03T14:43:25.039Z,30.77
2022-12-03T14:45:51.794Z,31.75
2022-12-03T14:48:18.480Z,31.85
2022-12-03T14:50:45.138Z,30.75
2022-12-03T14:53:13.047Z,32.35
2022-12-03T14:55:39.677Z,31.15
2022-12-03T14:58:06.284Z,30.38
2022-12-03T15:00:32.974Z,29.48
2022-12-03T15:02:59.622Z,31.30
2022-12-03T15:05:28.816Z,32.47
2022-12-03T15:07:56.063Z,31.95
2022-12-03T15:10:24.101Z,30.50
2022-12-03T15:12:50.721Z,31.33
2022-12-03T15:15:17.286Z,31.83
2022-12-03T15:17:43.910Z,31.48
2022-12-03T15:20:11.564Z,31.35
2022-12-03T15:22:38.113Z,30.55
2022-12-03T15:25:05.438Z,31.65
2022-12-03T15:27:33.377Z,30.75
2022-12-03T15:29:59.986Z,28.80
2022-12-03T15:32:26.653Z,29.63
2022-12-03T15:34:53.316Z,30.17
2022-12-03T15:37:19.944Z,28.98
2022-12-03T15:39:48.730Z,29.17
2022-12-03T15:42:15.657Z,29.90
2022-12-03T15:44:43.630Z,27.77
2022-12-03T15:47:10.168Z,27.75
2022-12-03T15:49:36.768Z,29.50
2022-12-03T15:52:03.412Z,29.38
2022-12-03T15:54:30.110Z,27.73
2022-12-03T15:56:57.656Z,29.88
2022-12-03T15:59:24.460Z,27.17
2022-12-03T16:01:52.581Z,29.13
2022-12-03T16:04:19.244Z,33.97
2022-12-03T16:06:45.983Z,30.33
2022-12-03T16:09:12.567Z,29.27
2022-12-03T16:11:39.100Z,32.63
2022-12-03T16:14:05.680Z,29.95
2022-12-03T16:16:32.485Z,27.02
2022-12-03T16:19:00.623Z,34.72
2022-12-03T16:21:27.529Z,29.75
2022-12-03T16:23:54.868Z,28.80
2022-12-03T16:26:21.856Z,28.60
2022-12-03T16:28:48.542Z,30.88
2022-12-03T16:31:15.343Z,30.63
2022-12-03T16:33:42.078Z,31.52
2022-12-03T16:36:10.684Z,30.13
2022-12-03T16:38:37.322Z,29.35
2022-12-03T16:41:03.968Z,30.42
2022-12-03T16:43:30.738Z,29.80
2022-12-03T16:45:57.387Z,29.30
2022-12-03T16:48:24.216Z,29.23
2022-12-03T16:50:50.942Z,28.77
2022-12-03T16:53:19.141Z,28.75
2022-12-03T16:55:45.664Z,29.15
2022-12-03T16:58:12.357Z,29.95
2022-12-03T17:00:38.915Z,30.75
2022-12-03T17:03:05.597Z,28.80
2022-12-03T17:05:32.359Z,31.90
2022-12-03T17:07:58.959Z,28.65
2022-12-03T17:10:27.185Z,29.15
2022-12-03T17:13:10.363Z,28.15
2022-12-03T17:15:37.747Z,28.42
2022-12-03T17:18:04.904Z,30.80
2022-12-03T17:20:32.173Z,35.80
2022-12-03T17:22:59.366Z,29.02
2022-12-03T17:25:28.006Z,30.52
2022-12-03T17:27:54.837Z,30.30
2022-12-03T17:30:21.536Z,29.65
2022-12-03T17:32:48.082Z,30.02
2022-12-03T17:35:14.804Z,30.23
2022-12-03T17:37:41.390Z,31.17
2022-12-03T17:40:10.399Z,29.08
2022-12-03T17:42:38.353Z,30.77
2022-12-03T17:45:06.207Z,29.85
2022-12-03T17:47:32.836Z,31.88
2022-12-03T17:49:59.636Z,29.35
2022-12-03T17:52:26.418Z,30.50
2022-12-03T17:55:10.764Z,29.65
2022-12-03T17:57:40.029Z,31.95
2022-12-03T18:00:07.910Z,31.33
2022-12-03T18:02:34.508Z,30.20
2022-12-03T18:05:01.125Z,31.75
2022-12-03T18:07:27.757Z,31.38
2022-12-03T18:09:54.687Z,31.42
2022-12-03T18:12:21.482Z,30.40
2022-12-03T18:14:49.518Z,32.00
2022-12-03T18:17:16.174Z,31.40
2022-12-03T18:19:42.729Z,32.28
2022-12-03T18:22:09.571Z,29.17
2022-12-03T18:24:36.320Z,31.80
2022-12-03T18:27:02.935Z,29.95
2022-12-03T18:29:29.529Z,31.95
2022-12-03T18:31:57.640Z,31.65
2022-12-03T18:34:24.250Z,31.25
2022-12-03T18:36:50.986Z,33.70
2022-12-03T18:39:23.949Z,33.78
2022-12-03T18:41:50.649Z,31.23
2022-12-03T18:44:17.270Z,30.98
2022-12-03T18:46:59.208Z,31.75
2022-12-03T18:49:27.231Z,30.33
2022-12-03T18:51:58.991Z,31.23
2022-12-03T18:54:26.116Z,32.53
2022-12-03T18:56:52.730Z,30.73
2022-12-03T18:59:19.604Z,32.03
2022-12-03T19:01:46.284Z,32.00
2022-12-03T19:04:12.924Z,31.98
2022-12-03T19:06:40.910Z,34.15
2022-12-03T19:09:07.478Z,32.20
2022-12-03T19:11:34.178Z,33.03
2022-12-03T19:14:00.801Z,33.63
2022-12-03T19:16:27.444Z,33.45
2022-12-03T19:18:54.956Z,32.00
2022-12-03T19:21:22.047Z,32.13
2022-12-03T19:24:22.108Z,33.85
2022-12-03T19:26:36.745Z,33.85
2022-12-03T19:29:03.448Z,33.33
2022-12-03T19:31:30.204Z,32.45
2022-12-03T19:33:56.841Z,33.25
2022-12-03T19:36:25.208Z,35.38
2022-12-03T19:38:57.232Z,33.55
2022-12-03T19:41:25.960Z,34.45
2022-12-03T19:43:54.886Z,33.50
2022-12-03T19:46:23.646Z,32.03
2022-12-03T19:48:50.714Z,34.10
2022-12-03T19:51:33.513Z,34.70
2022-12-03T19:54:02.876Z,32.20
2022-12-03T19:56:29.628Z,33.30
2022-12-03T19:58:56.631Z,35.70
2022-12-03T20:01:25.041Z,35.28
2022-12-03T20:03:55.162Z,34.15
2022-12-03T20:06:24.663Z,35.42
2022-12-03T20:08:54.856Z,35.85
2022-12-03T20:11:24.373Z,34.55
2022-12-03T20:13:53.570Z,34.05
2022-12-03T20:16:20.249Z,34.90
2022-12-03T20:18:48.799Z,34.08
2022-12-03T20:21:17.790Z,34.25
2022-12-03T20:23:44.857Z,36.20
2022-12-03T20:26:13.347Z,35.78
2022-12-03T20:28:41.943Z,35.95
2022-12-03T20:31:10.454Z,37.35
2022-12-03T20:33:37.361Z,35.35
2022-12-03T20:36:05.283Z,33.38
2022-12-03T20:38:31.929Z,35.63
2022-12-03T20:41:00.935Z,39.25
2022-12-03T20:43:28.322Z,35.50
2022-12-03T20:46:02.422Z,36.63
2022-12-03T20:48:29.678Z,38.20
2022-12-03T20:50:56.279Z,37.08
2022-12-03T20:53:25.362Z,34.78
2022-12-03T20:55:55.370Z,35.45
2022-12-03T20:58:21.994Z,35.63
2022-12-03T21:00:48.745Z,34.88
2022-12-03T21:03:16.966Z,35.88
2022-12-03T21:05:43.615Z,36.42
2022-12-03T21:08:11.166Z,35.88
2022-12-03T21:10:38.207Z,37.60
2022-12-03T21:13:04.878Z,38.03
2022-12-03T21:15:31.466Z,36.42
2022-12-03T21:17:58.182Z,38.22
2022-12-03T21:20:26.286Z,36.80
2022-12-03T21:22:52.967Z,37.70
2022-12-03T21:25:19.501Z,36.63
2022-12-03T21:27:46.121Z,36.15
2022-12-03T21:30:13.340Z,37.50
2022-12-03T21:32:39.960Z,36.30
2022-12-03T21:35:07.197Z,37.17
2022-12-03T21:37:35.148Z,35.53
2022-12-03T21:40:01.684Z,38.08
2022-12-03T21:42:36.883Z,36.13
2022-12-03T21:45:05.130Z,36.40
2022-12-03T21:47:36.982Z,38.88
2022-12-03T21:50:06.046Z,36.00
2022-12-03T21:52:35.030Z,37.33
2022-12-03T21:55:01.706Z,36.05
2022-12-03T21:57:28.361Z,38.72
2022-12-03T21:59:55.531Z,37.97
2022-12-03T22:02:22.367Z,37.80
2022-12-03T22:04:49.663Z,39.05
2022-12-03T22:07:16.692Z,39.45
2022-12-03T22:09:44.625Z,37.28
2022-12-03T22:12:11.308Z,36.65
2022-12-03T22:14:37.922Z,37.58
2022-12-03T22:17:04.527Z,36.60
2022-12-03T22:19:31.316Z,38.10
2022-12-03T22:21:57.921Z,36.05
2022-12-03T22:24:24.532Z,40.22
2022-12-03T22:26:52.506Z,38.47
2022-12-03T22:29:19.125Z,40.63
2022-12-03T22:31:45.714Z,37.10
2022-12-03T22:34:12.413Z,38.28
2022-12-03T22:36:39.016Z,37.63
2022-12-03T22:39:05.614Z,36.92
2022-12-03T22:41:32.166Z,41.42
2022-12-03T22:44:00.135Z,37.97
2022-12-03T22:46:27.034Z,39.28
2022-12-03T22:48:53.641Z,38.15
2022-12-03T22:51:22.293Z,39.95
2022-12-03T22:53:53.841Z,39.50
2022-12-03T22:56:20.465Z,37.00
2022-12-03T22:58:47.149Z,37.53
2022-12-03T23:01:21.612Z,39.33
2022-12-03T23:03:48.342Z,39.60
2022-12-03T23:06:15.125Z,37.45
2022-12-03T23:08:41.867Z,37.90
2022-12-03T23:11:08.836Z,38.58
2022-12-03T23:13:35.769Z,36.92
2022-12-03T23:16:02.722Z,39.55
2022-12-03T23:18:30.899Z,39.92
2022-12-03T23:20:57.687Z,37.88
2022-12-03T23:23:27.115Z,38.53
2022-12-03T23:25:57.502Z,37.22
2022-12-03T23:28:24.177Z,37.08
2022-12-03T23:30:50.813Z,39.75
2022-12-03T23:33:17.365Z,38.70
2022-12-03T23:35:45.375Z,39.97
2022-12-03T23:38:12.275Z,39.92
2022-12-03T23:40:42.273Z,39.65
2022-12-03T23:43:11.462Z,39.57
2022-12-03T23:45:38.052Z,42.72
2022-12-03T23:48:04.843Z,37.15
2022-12-03T23:50:31.715Z,39.38
2022-12-03T23:52:59.694Z,38.63
2022-12-03T23:55:26.239Z,39.35
2022-12-03T23:57:52.827Z,41.78
